createdAt,value
2022-11-24T00:01:29.198Z,6.48
2022-11-24T00:04:01.812Z,6.49
2022-11-24T00:06:30.157Z,6.46
2022-11-24T00:08:57.219Z,6.41
2022-11-24T00:11:32.817Z,6.43
2022-11-24T00:14:00.139Z,6.47
2022-11-24T00:16:32.530Z,6.48
2022-11-24T00:19:01.304Z,6.47
2022-11-24T00:21:30.435Z,6.57
2022-11-24T00:23:58.126Z,6.60
2022-11-24T00:26:27.612Z,6.62
2022-11-24T00:28:55.877Z,6.62
2022-11-24T00:31:24.323Z,6.63
2022-11-24T00:33:54.047Z,6.64
2022-11-24T00:36:23.094Z,6.64
2022-11-24T00:38:55.457Z,6.62
2022-11-24T00:41:22.735Z,6.67
2022-11-24T00:43:49.262Z,6.72
2022-11-24T00:46:15.983Z,6.77
2022-11-24T00:48:42.874Z,6.75
2022-11-24T00:51:12.392Z,6.73
2022-11-24T00:53:39.343Z,6.73
2022-11-24T00:56:06.905Z,6.73
2022-11-24T00:58:33.908Z,6.69
2022-11-24T01:01:28.238Z,6.70
2022-11-24T01:03:55.804Z,6.65
2022-11-24T01:06:24.869Z,6.73
2022-11-24T01:08:51.955Z,6.75
2022-11-24T01:11:27.801Z,6.74
2022-11-24T01:13:57.753Z,6.70
2022-11-24T01:16:28.426Z,6.71
2022-11-24T01:18:55.269Z,6.69
2022-11-24T01:21:22.553Z,6.67
2022-11-24T01:23:49.734Z,6.73
2022-11-24T01:26:19.513Z,6.71
2022-11-24T01:28:47.480Z,6.74
2022-11-24T01:31:16.149Z,6.73
2022-11-24T01:33:43.318Z,6.69
2022-11-24T01:36:09.918Z,6.74
2022-11-24T01:38:36.480Z,6.67
2022-11-24T01:41:02.989Z,6.63
2022-11-24T01:43:29.546Z,6.60
2022-11-24T01:45:57.340Z,6.55
2022-11-24T01:48:36.385Z,6.53
2022-11-24T01:51:18.979Z,6.48
2022-11-24T01:53:50.902Z,6.48
2022-11-24T01:56:18.655Z,6.44
2022-11-24T01:58:47.190Z,6.46
2022-11-24T02:01:13.850Z,6.51
2022-11-24T02:03:44.124Z,6.53
2022-11-24T02:06:20.484Z,6.49
2022-11-24T02:08:55.825Z,6.44
2022-11-24T02:11:25.058Z,6.38
2022-11-24T02:13:53.492Z,6.30
2022-11-24T02:16:20.447Z,6.33
2022-11-24T02:18:47.240Z,6.41
2022-11-24T02:21:15.767Z,6.48
2022-11-24T02:23:55.415Z,6.39
2022-11-24T02:26:40.785Z,6.36
2022-11-24T02:29:08.187Z,6.31
2022-11-24T02:31:34.959Z,6.35
2022-11-24T02:34:01.793Z,6.34
2022-11-24T02:36:28.329Z,6.33
2022-11-24T02:38:54.913Z,6.35
2022-11-24T02:41:24.012Z,6.38
2022-11-24T02:43:56.533Z,6.37
2022-11-24T02:46:23.240Z,6.48
2022-11-24T02:48:50.400Z,6.43
2022-11-24T02:51:18.039Z,6.39
2022-11-24T02:53:45.706Z,6.38
2022-11-24T02:56:12.788Z,6.43
2022-11-24T02:58:39.993Z,6.39
2022-11-24T03:01:06.679Z,6.34
2022-11-24T03:03:33.282Z,6.39
2022-11-24T03:06:00.769Z,6.40
2022-11-24T03:08:27.779Z,6.40
2022-11-24T03:10:54.682Z,6.42
2022-11-24T03:13:21.721Z,6.41
2022-11-24T03:15:48.733Z,6.39
2022-11-24T03:18:15.464Z,6.41
2022-11-24T03:20:41.966Z,6.38
2022-11-24T03:23:08.994Z,6.39
2022-11-24T03:25:36.131Z,6.36
2022-11-24T03:28:03.185Z,6.31
2022-11-24T03:30:30.418Z,6.29
2022-11-24T03:32:56.931Z,6.26
2022-11-24T03:35:23.760Z,6.33
2022-11-24T03:37:50.905Z,6.33
2022-11-24T03:40:19.295Z,6.22
2022-11-24T03:42:45.854Z,6.34
2022-11-24T03:45:38.040Z,6.28
2022-11-24T03:47:59.544Z,6.40
2022-11-24T03:50:26.045Z,6.34
2022-11-24T03:52:52.556Z,6.32
2022-11-24T03:55:20.089Z,6.32
2022-11-24T03:57:46.621Z,6.33
2022-11-24T04:00:14.086Z,6.32
2022-11-24T04:02:40.638Z,6.36
2022-11-24T04:05:09.199Z,6.37
2022-11-24T04:07:35.755Z,6.38
2022-11-24T04:10:02.277Z,6.39
2022-11-24T04:12:44.050Z,6.44
2022-11-24T04:15:17.777Z,6.42
2022-11-24T04:17:45.502Z,6.42
2022-11-24T04:20:13.746Z,6.46
2022-11-24T04:22:40.777Z,6.41
2022-11-24T04:25:08.422Z,6.51
2022-11-24T04:27:36.966Z,6.46
2022-11-24T04:30:07.997Z,6.45
2022-11-24T04:32:35.125Z,6.45
2022-11-24T04:35:01.726Z,6.47
2022-11-24T04:37:28.254Z,6.46
2022-11-24T04:39:55.327Z,6.51
2022-11-24T04:42:22.444Z,6.52
2022-11-24T04:44:49.491Z,6.53
2022-11-24T04:47:22.652Z,6.58
2022-11-24T04:49:50.068Z,6.56
2022-11-24T04:52:17.932Z,6.58
2022-11-24T04:54:45.661Z,6.62
2022-11-24T04:57:23.443Z,6.60
2022-11-24T04:59:51.333Z,6.56
2022-11-24T05:02:18.341Z,6.60
2022-11-24T05:04:46.091Z,6.58
2022-11-24T05:07:18.857Z,6.63
2022-11-24T05:10:05.483Z,6.63
2022-11-24T05:12:32.417Z,6.76
2022-11-24T05:15:01.410Z,6.72
2022-11-24T05:17:33.031Z,6.71
2022-11-24T05:20:00.306Z,6.68
2022-11-24T05:22:29.425Z,6.70
2022-11-24T05:24:56.643Z,6.77
2022-11-24T05:27:23.674Z,6.70
2022-11-24T05:29:50.325Z,6.68
2022-11-24T05:32:16.930Z,6.70
2022-11-24T05:34:43.440Z,6.71
2022-11-24T05:37:10.019Z,6.63
2022-11-24T05:39:37.068Z,6.69
2022-11-24T05:42:25.962Z,6.67
2022-11-24T05:44:53.540Z,6.67
2022-11-24T05:47:20.264Z,6.64
2022-11-24T05:49:47.069Z,6.62
2022-11-24T05:52:13.969Z,6.58
2022-11-24T05:54:41.086Z,6.54
2022-11-24T05:57:07.844Z,6.51
2022-11-24T05:59:34.874Z,6.44
2022-11-24T06:02:01.622Z,6.40
2022-11-24T06:04:28.288Z,6.38
2022-11-24T06:06:54.909Z,6.39
2022-11-24T06:09:21.441Z,6.34
2022-11-24T06:11:48.929Z,6.41
2022-11-24T06:14:15.902Z,6.28
2022-11-24T06:16:43.009Z,6.40
2022-11-24T06:19:10.862Z,6.38
2022-11-24T06:21:37.824Z,6.34
2022-11-24T06:24:05.363Z,6.33
2022-11-24T06:26:31.951Z,6.33
2022-11-24T06:28:59.267Z,6.26
2022-11-24T06:31:26.578Z,6.18
2022-11-24T06:33:53.709Z,6.21
2022-11-24T06:36:20.474Z,6.14
2022-11-24T06:38:47.220Z,6.10
2022-11-24T06:41:16.008Z,6.07
2022-11-24T06:43:43.162Z,6.05
2022-11-24T06:46:10.267Z,6.05
2022-11-24T06:48:37.602Z,6.06
2022-11-24T06:51:08.616Z,6.02
2022-11-24T06:53:39.481Z,6.02
2022-11-24T06:56:16.243Z,6.07
2022-11-24T06:58:48.275Z,6.03
2022-11-24T07:01:17.220Z,5.98
2022-11-24T07:03:44.192Z,5.97
2022-11-24T07:06:10.785Z,6.02
2022-11-24T07:08:37.296Z,6.01
2022-11-24T07:11:08.215Z,5.98
2022-11-24T07:13:35.189Z,5.94
2022-11-24T07:16:12.114Z,5.93
2022-11-24T07:18:38.738Z,5.94
2022-11-24T07:21:05.778Z,5.88
2022-11-24T07:23:32.802Z,5.85
2022-11-24T07:26:03.692Z,5.89
2022-11-24T07:28:33.864Z,5.94
2022-11-24T07:31:09.084Z,5.96
2022-11-24T07:33:36.672Z,6.01
2022-11-24T07:36:04.689Z,6.06
2022-11-24T07:38:31.989Z,6.05
2022-11-24T07:41:02.004Z,6.07
2022-11-24T07:43:30.792Z,6.15
2022-11-24T07:45:57.747Z,6.20
2022-11-24T07:48:24.448Z,6.20
2022-11-24T07:50:55.820Z,6.18
2022-11-24T07:53:23.164Z,6.18
2022-11-24T07:55:59.795Z,6.16
2022-11-24T07:58:32.398Z,6.08
2022-11-24T08:01:00.133Z,6.11
2022-11-24T08:03:27.007Z,6.07
2022-11-24T08:08:47.618Z,5.96
2022-11-24T08:11:17.163Z,6.01
2022-11-24T08:13:44.404Z,6.08
2022-11-24T08:16:13.805Z,6.12
2022-11-24T08:18:40.823Z,6.16
2022-11-24T08:21:08.797Z,6.17
2022-11-24T08:23:35.937Z,6.15
2022-11-24T08:26:13.720Z,6.12
2022-11-24T08:28:40.255Z,6.11
2022-11-24T08:31:18.843Z,6.17
2022-11-24T08:33:46.815Z,6.17
2022-11-24T08:36:16.855Z,6.23
2022-11-24T08:38:44.807Z,6.23
2022-11-24T08:41:13.626Z,6.24
2022-11-24T08:43:40.613Z,6.30
2022-11-24T08:46:10.036Z,6.34
2022-11-24T08:48:36.926Z,6.35
2022-11-24T08:51:09.110Z,6.42
2022-11-24T08:53:35.662Z,6.41
2022-11-24T08:56:03.775Z,6.46
2022-11-24T08:58:33.449Z,6.44
2022-11-24T09:01:15.193Z,6.50
2022-11-24T09:03:49.746Z,6.52
2022-11-24T09:06:23.616Z,6.61
2022-11-24T09:08:50.925Z,6.52
2022-11-24T09:11:18.209Z,6.67
2022-11-24T09:13:45.399Z,6.65
2022-11-24T09:16:17.221Z,6.73
2022-11-24T09:18:45.226Z,6.72
2022-11-24T09:21:17.436Z,6.76
2022-11-24T09:23:45.330Z,6.85
2022-11-24T09:26:15.897Z,6.88
2022-11-24T09:28:43.140Z,6.92
2022-11-24T09:31:12.303Z,7.04
2022-11-24T09:33:40.135Z,7.17
2022-11-24T09:36:07.758Z,7.36
2022-11-24T09:38:34.443Z,7.55
2022-11-24T09:41:15.246Z,7.59
2022-11-24T09:43:55.730Z,7.62
2022-11-24T09:46:32.938Z,7.49
2022-11-24T09:49:03.642Z,7.41
2022-11-24T09:51:32.481Z,7.37
2022-11-24T09:54:09.404Z,7.37
2022-11-24T09:56:40.637Z,7.37
2022-11-24T09:59:16.162Z,7.37
2022-11-24T10:01:46.147Z,7.44
2022-11-24T10:04:20.921Z,7.48
2022-11-24T10:07:15.290Z,7.57
2022-11-24T10:10:13.949Z,7.58
2022-11-24T10:12:46.886Z,7.63
2022-11-24T10:15:28.135Z,7.61
2022-11-24T10:18:19.119Z,7.72
2022-11-24T10:21:28.176Z,7.77
2022-11-24T10:24:20.123Z,7.82
2022-11-24T10:27:10.906Z,7.85
2022-11-24T10:29:40.837Z,7.92
2022-11-24T10:32:26.395Z,7.92
2022-11-24T10:34:55.204Z,7.90
2022-11-24T10:37:34.007Z,7.95
2022-11-24T10:40:33.332Z,8.10
2022-11-24T10:43:01.082Z,8.28
2022-11-24T10:45:29.145Z,8.32
2022-11-24T10:47:57.795Z,8.29
2022-11-24T10:50:27.821Z,8.27
2022-11-24T10:53:07.155Z,8.27
2022-11-24T10:56:06.286Z,8.35
2022-11-24T10:58:38.042Z,8.38
2022-11-24T11:01:14.802Z,8.40
2022-11-24T11:03:47.921Z,8.44
2022-11-24T11:06:28.656Z,8.46
2022-11-24T11:09:07.856Z,8.53
2022-11-24T11:11:35.927Z,8.59
2022-11-24T11:14:04.988Z,8.58
2022-11-24T11:16:36.767Z,8.54
2022-11-24T11:19:20.268Z,8.64
2022-11-24T11:22:05.136Z,8.70
2022-11-24T11:24:32.209Z,8.71
2022-11-24T11:27:06.030Z,8.72
2022-11-24T11:35:12.719Z,8.82
2022-11-24T11:37:39.740Z,8.81
2022-11-24T11:40:16.391Z,8.80
2022-11-24T11:43:03.932Z,8.79
2022-11-24T11:45:39.397Z,8.88
2022-11-24T11:48:17.853Z,8.90
2022-11-24T11:51:27.072Z,8.86
2022-11-24T11:54:19.217Z,8.88
2022-11-24T11:57:00.854Z,8.94
2022-11-24T12:00:03.215Z,8.99
2022-11-24T12:02:39.054Z,8.96
2022-11-24T12:05:18.472Z,9.01
2022-11-24T12:07:53.952Z,9.09
2022-11-24T12:10:32.694Z,9.10
2022-11-24T12:14:04.524Z,9.08
2022-11-24T12:16:55.817Z,9.08
2022-11-24T12:19:33.842Z,9.11
2022-11-24T12:22:00.434Z,9.17
2022-11-24T12:24:30.500Z,9.19
2022-11-24T12:27:11.742Z,9.15
2022-11-24T12:29:53.746Z,9.20
2022-11-24T12:32:35.410Z,9.13
2022-11-24T12:35:29.543Z,9.12
2022-11-24T12:37:56.051Z,9.30
2022-11-24T12:40:25.539Z,9.28
2022-11-24T12:43:21.561Z,9.27
2022-11-24T12:46:08.854Z,9.27
2022-11-24T12:49:02.519Z,9.25
2022-11-24T12:51:53.432Z,9.31
2022-11-24T12:54:22.302Z,9.29
2022-11-24T12:57:15.045Z,9.27
2022-11-24T13:00:07.433Z,9.28
2022-11-24T13:02:59.143Z,9.31
2022-11-24T13:05:31.573Z,9.31
2022-11-24T13:08:01.558Z,9.21
2022-11-24T13:13:49.871Z,9.24
2022-11-24T13:16:35.641Z,9.22
2022-11-24T13:19:14.795Z,9.26
2022-11-24T13:21:41.552Z,9.25
2022-11-24T13:24:17.791Z,9.31
2022-11-24T13:26:51.309Z,9.33
2022-11-24T13:29:34.984Z,9.26
2022-11-24T13:32:04.190Z,9.24
2022-11-24T13:34:42.935Z,9.23
2022-11-24T13:37:35.031Z,9.23
2022-11-24T13:40:22.513Z,9.30
2022-11-24T13:42:55.014Z,9.26
2022-11-24T13:45:41.178Z,9.28
2022-11-24T13:48:20.327Z,9.28
2022-11-24T13:50:50.797Z,9.25
2022-11-24T13:53:40.841Z,9.24
2022-11-24T13:56:13.326Z,9.19
2022-11-24T13:58:41.060Z,9.16
2022-11-24T14:01:07.510Z,9.09
2022-11-24T14:03:55.358Z,8.97
2022-11-24T14:06:34.482Z,8.94
2022-11-24T14:09:17.361Z,8.89
2022-11-24T14:11:46.742Z,8.94
2022-11-24T14:14:20.613Z,8.96
2022-11-24T14:16:47.379Z,8.90
2022-11-24T14:19:18.674Z,8.85
2022-11-24T14:21:45.543Z,8.79
2022-11-24T14:24:23.236Z,8.84
2022-11-24T14:26:50.945Z,8.76
2022-11-24T14:29:22.050Z,8.76
2022-11-24T14:31:57.054Z,8.68
2022-11-24T14:34:24.956Z,8.65
2022-11-24T14:36:54.636Z,8.58
2022-11-24T14:39:23.475Z,8.45
2022-11-24T14:42:00.361Z,8.35
2022-11-24T14:44:29.739Z,8.36
2022-11-24T14:47:30.422Z,8.28
2022-11-24T14:50:13.803Z,8.19
2022-11-24T14:52:55.154Z,8.11
2022-11-24T14:55:28.136Z,8.13
2022-11-24T14:57:55.468Z,8.10
2022-11-24T15:00:24.833Z,8.06
2022-11-24T15:03:00.472Z,7.99
2022-11-24T15:05:57.135Z,7.94
2022-11-24T15:08:26.585Z,7.88
2022-11-24T15:11:02.582Z,7.86
2022-11-24T15:13:33.513Z,7.83
2022-11-24T15:16:04.032Z,7.71
2022-11-24T15:18:39.679Z,7.63
2022-11-24T15:21:06.441Z,7.54
2022-11-24T15:23:35.096Z,7.51
2022-11-24T15:26:01.732Z,7.56
2022-11-24T15:28:29.762Z,7.57
2022-11-24T15:31:04.233Z,7.48
2022-11-24T15:33:31.716Z,7.41
2022-11-24T15:35:59.325Z,7.41
2022-11-24T15:38:26.157Z,7.36
2022-11-24T15:40:55.228Z,7.35
2022-11-24T15:43:36.398Z,7.28
2022-11-24T15:46:04.740Z,7.20
2022-11-24T15:48:31.624Z,7.22
2022-11-24T15:50:59.696Z,7.19
2022-11-24T15:53:35.355Z,7.17
2022-11-24T15:56:03.415Z,7.24
2022-11-24T15:58:29.974Z,7.25
2022-11-24T16:00:56.664Z,7.17
2022-11-24T16:06:19.068Z,7.12
2022-11-24T16:08:50.148Z,7.13
2022-11-24T16:11:16.668Z,7.17
2022-11-24T16:13:50.091Z,7.09
2022-11-24T16:16:19.572Z,7.16
2022-11-24T16:18:46.194Z,7.14
2022-11-24T16:21:12.670Z,7.18
2022-11-24T16:23:39.731Z,7.20
2022-11-24T16:26:06.938Z,7.17
2022-11-24T16:28:33.943Z,7.18
2022-11-24T16:31:00.551Z,7.19
2022-11-24T16:33:29.440Z,7.12
2022-11-24T16:35:55.990Z,7.07
2022-11-24T16:38:22.585Z,7.07
2022-11-24T16:40:54.061Z,7.03
2022-11-24T16:43:21.112Z,7.02
2022-11-24T16:46:03.174Z,7.05
2022-11-24T16:48:35.758Z,7.05
2022-11-24T16:51:10.121Z,7.13
2022-11-24T16:53:36.989Z,7.15
2022-11-24T16:56:03.545Z,7.04
2022-11-24T16:58:30.099Z,7.02
2022-11-24T17:01:03.980Z,6.95
2022-11-24T17:03:37.100Z,6.88
2022-11-24T17:06:07.226Z,7.00
2022-11-24T17:08:35.637Z,7.03
2022-11-24T17:11:10.186Z,7.00
2022-11-24T17:13:37.088Z,6.97
2022-11-24T17:16:05.646Z,6.93
2022-11-24T17:18:32.265Z,7.03
2022-11-24T17:21:03.224Z,7.02
2022-11-24T17:23:33.153Z,7.05
2022-11-24T17:26:07.844Z,7.14
2022-11-24T17:28:35.552Z,7.17
2022-11-24T17:31:08.639Z,7.16
2022-11-24T17:33:35.797Z,7.24
2022-11-24T17:36:05.435Z,7.16
2022-11-24T17:38:32.199Z,7.10
2022-11-24T17:40:59.098Z,7.12
2022-11-24T17:43:26.195Z,7.21
2022-11-24T17:45:54.790Z,7.17
2022-11-24T17:48:22.100Z,7.12
2022-11-24T17:50:49.143Z,7.06
2022-11-24T17:53:16.285Z,6.98
2022-11-24T17:55:43.365Z,7.16
2022-11-24T17:58:10.354Z,7.19
2022-11-24T18:00:36.917Z,7.14
2022-11-24T18:03:03.502Z,7.23
2022-11-24T18:05:30.162Z,7.18
2022-11-24T18:07:56.740Z,7.15
2022-11-24T18:10:23.325Z,7.27
2022-11-24T18:12:49.853Z,7.25
2022-11-24T18:15:16.954Z,7.14
2022-11-24T18:17:43.557Z,7.19
2022-11-24T18:20:10.623Z,7.12
2022-11-24T18:23:04.025Z,7.13
2022-11-24T18:25:24.185Z,7.12
2022-11-24T18:27:50.680Z,7.04
2022-11-24T18:30:18.045Z,6.99
2022-11-24T18:32:44.637Z,7.03
2022-11-24T18:35:11.177Z,7.09
2022-11-24T18:37:43.426Z,7.05
2022-11-24T18:40:10.246Z,7.06
2022-11-24T18:42:37.187Z,7.18
2022-11-24T18:45:04.949Z,7.12
2022-11-24T18:47:31.492Z,7.08
2022-11-24T18:50:00.278Z,7.07
2022-11-24T18:52:27.321Z,7.09
2022-11-24T18:54:53.879Z,7.01
2022-11-24T18:57:20.426Z,6.97
2022-11-24T18:59:46.939Z,7.02
2022-11-24T19:02:13.573Z,7.07
2022-11-24T19:04:40.330Z,6.95
2022-11-24T19:07:06.841Z,6.94
2022-11-24T19:09:33.455Z,6.84
2022-11-24T19:12:00.080Z,6.86
2022-11-24T19:14:26.660Z,6.76
2022-11-24T19:16:53.819Z,6.83
2022-11-24T19:19:20.304Z,6.82
2022-11-24T19:21:46.792Z,6.90
2022-11-24T19:24:13.538Z,6.90
2022-11-24T19:26:41.118Z,6.95
2022-11-24T19:29:08.420Z,6.94
2022-11-24T19:31:35.726Z,6.98
2022-11-24T19:34:03.524Z,6.92
2022-11-24T19:36:30.390Z,6.93
2022-11-24T19:38:58.242Z,6.82
2022-11-24T19:41:27.619Z,6.78
2022-11-24T19:43:54.998Z,6.76
2022-11-24T19:46:23.017Z,6.73
2022-11-24T19:48:51.608Z,6.76
2022-11-24T19:51:21.241Z,6.74
2022-11-24T19:53:48.139Z,6.73
2022-11-24T19:56:20.118Z,6.80
2022-11-24T19:58:47.806Z,6.88
2022-11-24T20:01:20.093Z,6.81
2022-11-24T20:03:49.484Z,6.82
2022-11-24T20:06:16.441Z,6.77
2022-11-24T20:08:44.092Z,6.79
2022-11-24T20:11:13.478Z,6.77
2022-11-24T20:13:41.909Z,6.70
2022-11-24T20:16:11.518Z,6.74
2022-11-24T20:18:42.254Z,6.73
2022-11-24T20:21:20.237Z,6.69
2022-11-24T20:23:52.961Z,6.72
2022-11-24T20:26:20.798Z,6.76
2022-11-24T20:28:47.690Z,6.75
2022-11-24T20:31:17.455Z,6.78
2022-11-24T20:33:47.980Z,6.82
2022-11-24T20:36:20.174Z,6.75
2022-11-24T20:38:47.772Z,6.75
2022-11-24T20:41:16.846Z,6.79
2022-11-24T20:43:44.652Z,6.86
2022-11-24T20:46:17.879Z,6.90
2022-11-24T20:48:44.941Z,6.94
2022-11-24T20:51:13.790Z,6.99
2022-11-24T20:53:41.388Z,7.01
2022-11-24T20:56:11.733Z,7.01
2022-11-24T20:58:38.578Z,6.94
2022-11-24T21:01:17.602Z,7.05
2022-11-24T21:03:45.483Z,7.00
2022-11-24T21:06:14.362Z,7.02
2022-11-24T21:08:42.310Z,7.01
2022-11-24T21:11:11.374Z,7.04
2022-11-24T21:13:39.832Z,7.06
2022-11-24T21:16:26.851Z,7.09
2022-11-24T21:18:56.423Z,7.07
2022-11-24T21:21:25.130Z,7.06
2022-11-24T21:23:51.896Z,7.11
2022-11-24T21:26:20.084Z,7.09
2022-11-24T21:28:47.772Z,7.06
2022-11-24T21:31:20.578Z,7.06
2022-11-24T21:33:50.062Z,7.12
2022-11-24T21:36:22.152Z,7.09
2022-11-24T21:38:54.401Z,7.02
2022-11-24T21:41:22.259Z,7.05
2022-11-24T21:43:49.981Z,7.09
2022-11-24T21:46:17.710Z,7.09
2022-11-24T21:48:44.505Z,7.16
2022-11-24T21:51:19.851Z,7.15
2022-11-24T21:53:47.281Z,7.12
2022-11-24T21:56:19.123Z,7.16
2022-11-24T21:58:54.050Z,7.27
2022-11-24T22:01:23.055Z,7.32
2022-11-24T22:03:50.809Z,7.32
2022-11-24T22:06:19.300Z,7.27
2022-11-24T22:08:47.485Z,7.29
2022-11-24T22:11:16.197Z,7.32
2022-11-24T22:13:44.518Z,7.31
2022-11-24T22:16:13.829Z,7.39
2022-11-24T22:18:41.723Z,7.39
2022-11-24T22:21:12.121Z,7.39
2022-11-24T22:23:38.673Z,7.51
2022-11-24T22:26:07.859Z,7.52
2022-11-24T22:28:35.413Z,7.57
2022-11-24T22:31:13.861Z,7.51
2022-11-24T22:33:40.963Z,7.54
2022-11-24T22:36:08.144Z,7.55
2022-11-24T22:38:34.898Z,7.43
2022-11-24T22:41:09.518Z,7.41
2022-11-24T22:43:38.518Z,7.40
2022-11-24T22:46:11.096Z,7.41
2022-11-24T22:48:38.661Z,7.37
2022-11-24T22:51:08.273Z,7.35
2022-11-24T22:53:35.030Z,7.31
2022-11-24T22:56:10.174Z,7.34
2022-11-24T22:58:37.261Z,7.36
2022-11-24T23:01:24.114Z,7.40
2022-11-24T23:03:53.776Z,7.44
2022-11-24T23:06:23.242Z,7.50
2022-11-24T23:08:51.448Z,7.52
2022-11-24T23:11:25.873Z,7.41
2022-11-24T23:13:57.568Z,7.42
2022-11-24T23:16:24.914Z,7.40
2022-11-24T23:18:53.970Z,7.44
2022-11-24T23:21:29.402Z,7.39
2022-11-24T23:23:57.793Z,7.36
2022-11-24T23:26:27.520Z,7.25
2022-11-24T23:28:54.225Z,7.26
2022-11-24T23:31:24.348Z,7.36
2022-11-24T23:33:50.985Z,7.28
2022-11-24T23:36:19.833Z,7.18
2022-11-24T23:38:47.462Z,7.13
2022-11-24T23:41:19.708Z,7.11
2022-11-24T23:43:46.588Z,7.14
2022-11-24T23:46:21.789Z,7.16
2022-11-24T23:48:49.620Z,7.22
2022-11-24T23:51:19.476Z,7.18
2022-11-24T23:53:47.062Z,7.20
2022-11-24T23:56:17.553Z,7.23
2022-11-24T23:58:44.338Z,7.17
